sensor_id;sensor_type;location;lat;lon;timestamp;pressure;altitude;pressure_sealevel;temperature
24278;BMP280;12394;42.692;23.314;2023-11-21T00:01:56;94838.34;;;6.24
24278;BMP280;12394;42.692;23.314;2023-11-21T00:04:22;94836.47;;;6.21
24278;BMP280;12394;42.692;23.314;2023-11-21T00:06:47;94833.50;;;6.23
24278;BMP280;12394;42.692;23.314;2023-11-21T00:09:14;94841.28;;;6.19
24278;BMP280;12394;42.692;23.314;2023-11-21T00:11:41;94839.03;;;6.18
24278;BMP280;12394;42.692;23.314;2023-11-21T00:14:07;94829.72;;;6.13
24278;BMP280;12394;42.692;23.314;2023-11-21T00:16:33;94842.78;;;6.20
24278;BMP280;12394;42.692;23.314;2023-11-21T00:18:59;94841.63;;;6.18
24278;BMP280;12394;42.692;23.314;2023-11-21T00:21:24;94843.50;;;6.17
24278;BMP280;12394;42.692;23.314;2023-11-21T00:23:50;94843.09;;;6.15
24278;BMP280;12394;42.692;23.314;2023-11-21T00:26:15;94844.59;;;6.16
24278;BMP280;12394;42.692;23.314;2023-11-21T00:28:41;94835.72;;;6.17
24278;BMP280;12394;42.692;23.314;2023-11-21T00:31:06;94826.41;;;6.16
24278;BMP280;12394;42.692;23.314;2023-11-21T00:33:32;94835.72;;;6.17
24278;BMP280;12394;42.692;23.314;2023-11-21T00:35:57;94836.06;;;6.16
24278;BMP280;12394;42.692;23.314;2023-11-21T00:38:23;94835.66;;;6.14
24278;BMP280;12394;42.692;23.314;2023-11-21T00:40:48;94829.34;;;6.11
24278;BMP280;12394;42.692;23.314;2023-11-21T00:43:14;94837.13;;;6.11
24278;BMP280;12394;42.692;23.314;2023-11-21T00:45:40;94836.72;;;6.09
24278;BMP280;12394;42.692;23.314;2023-11-21T00:48:05;94832.25;;;6.06
24278;BMP280;12394;42.692;23.314;2023-11-21T00:50:31;94830.41;;;6.07
24278;BMP280;12394;42.692;23.314;2023-11-21T00:52:57;94839.66;;;6.04
24278;BMP280;12394;42.692;23.314;2023-11-21T00:55:22;94831.09;;;6.00
24278;BMP280;12394;42.692;23.314;2023-11-21T00:57:48;94825.50;;;5.95
24278;BMP280;12394;42.692;23.314;2023-11-21T01:00:13;94819.16;;;5.92
24278;BMP280;12394;42.692;23.314;2023-11-21T01:02:43;94821.41;;;5.94
24278;BMP280;12394;42.692;23.314;2023-11-21T01:05:10;94801.91;;;5.73
24278;BMP280;12394;42.692;23.314;2023-11-21T01:07:36;94822.81;;;5.88
24278;BMP280;12394;42.692;23.314;2023-11-21T01:10:02;94810.84;;;5.76
24278;BMP280;12394;42.692;23.314;2023-11-21T01:12:28;94819.03;;;5.81
24278;BMP280;12394;42.692;23.314;2023-11-21T01:14:54;94814.56;;;5.78
24278;BMP280;12394;42.692;23.314;2023-11-21T01:17:19;94814.91;;;5.77
24278;BMP280;12394;42.692;23.314;2023-11-21T01:19:47;94812.31;;;5.77
24278;BMP280;12394;42.692;23.314;2023-11-21T01:22:13;94816.72;;;5.73
24278;BMP280;12394;42.692;23.314;2023-11-21T01:24:38;94825.63;;;5.72
24278;BMP280;12394;42.692;23.314;2023-11-21T01:27:04;94827.44;;;5.68
24278;BMP280;12394;42.692;23.314;2023-11-21T01:29:29;94812.59;;;5.65
24278;BMP280;12394;42.692;23.314;2023-11-21T01:31:55;94814.44;;;5.68
24278;BMP280;12394;42.692;23.314;2023-11-21T01:34:22;94802.50;;;5.56
24278;BMP280;12394;42.692;23.314;2023-11-21T01:36:48;94807.69;;;5.56
24278;BMP280;12394;42.692;23.314;2023-11-21T01:39:14;94819.59;;;5.61
24278;BMP280;12394;42.692;23.314;2023-11-21T01:41:41;94812.09;;;5.52
24278;BMP280;12394;42.692;23.314;2023-11-21T01:44:09;94824.00;;;5.57
24278;BMP280;12394;42.692;23.314;2023-11-21T01:46:35;94815.44;;;5.53
24278;BMP280;12394;42.692;23.314;2023-11-21T01:49:01;94805.44;;;5.55
24278;BMP280;12394;42.692;23.314;2023-11-21T01:51:26;94798.41;;;5.55
24278;BMP280;12394;42.692;23.314;2023-11-21T01:53:52;94802.81;;;5.51
24278;BMP280;12394;42.692;23.314;2023-11-21T01:56:18;94809.09;;;5.50
24278;BMP280;12394;42.692;23.314;2023-11-21T01:58:44;94815.41;;;5.49
24278;BMP280;12394;42.692;23.314;2023-11-21T02:01:12;94814.94;;;5.40
24278;BMP280;12394;42.692;23.314;2023-11-21T02:03:37;94808.09;;;5.25
24278;BMP280;12394;42.692;23.314;2023-11-21T02:06:03;94814.47;;;5.31
24278;BMP280;12394;42.692;23.314;2023-11-21T02:08:28;94815.13;;;5.24
24278;BMP280;12394;42.692;23.314;2023-11-21T02:10:53;94821.38;;;5.20
24278;BMP280;12394;42.692;23.314;2023-11-21T02:13:19;94813.88;;;5.11
24278;BMP280;12394;42.692;23.314;2023-11-21T02:15:44;94808.69;;;5.11
24278;BMP280;12394;42.692;23.314;2023-11-21T02:18:10;94819.81;;;5.12
24278;BMP280;12394;42.692;23.314;2023-11-21T02:20:36;94819.41;;;5.10
24278;BMP280;12394;42.692;23.314;2023-11-21T02:23:04;94813.47;;;5.09
24278;BMP280;12394;42.692;23.314;2023-11-21T02:25:31;94807.94;;;5.11
24278;BMP280;12394;42.692;23.314;2023-11-21T02:28:01;94806.09;;;5.11
24278;BMP280;12394;42.692;23.314;2023-11-21T02:30:27;94802.00;;;5.10
24278;BMP280;12394;42.692;23.314;2023-11-21T02:32:53;94800.56;;;5.13
24278;BMP280;12394;42.692;23.314;2023-11-21T02:35:20;94798.31;;;5.11
24278;BMP280;12394;42.692;23.314;2023-11-21T02:37:47;94809.47;;;5.15
24278;BMP280;12394;42.692;23.314;2023-11-21T02:40:12;94803.09;;;5.09
24278;BMP280;12394;42.692;23.314;2023-11-21T02:42:39;94806.09;;;5.11
24278;BMP280;12394;42.692;23.314;2023-11-21T02:45:07;94806.44;;;5.10
24278;BMP280;12394;42.692;23.314;2023-11-21T02:47:32;94810.19;;;5.12
24278;BMP280;12394;42.692;23.314;2023-11-21T02:49:59;94802.00;;;5.10
24278;BMP280;12394;42.692;23.314;2023-11-21T02:52:24;94809.31;;;5.01
24278;BMP280;12394;42.692;23.314;2023-11-21T02:54:50;94809.31;;;5.01
24278;BMP280;12394;42.692;23.314;2023-11-21T02:57:16;94801.94;;;5.03
24278;BMP280;12394;42.692;23.314;2023-11-21T02:59:42;94803.00;;;4.99
24278;BMP280;12394;42.692;23.314;2023-11-21T03:02:07;94797.88;;;5.06
24278;BMP280;12394;42.692;23.314;2023-11-21T03:04:35;94798.97;;;5.05
24278;BMP280;12394;42.692;23.314;2023-11-21T03:07:01;94791.16;;;5.01
24278;BMP280;12394;42.692;23.314;2023-11-21T03:09:26;94799.38;;;5.07
24278;BMP280;12394;42.692;23.314;2023-11-21T03:11:53;94789.38;;;5.05
24278;BMP280;12394;42.692;23.314;2023-11-21T03:14:18;94805.69;;;5.09
24278;BMP280;12394;42.692;23.314;2023-11-21T03:16:44;94799.41;;;5.10
24278;BMP280;12394;42.692;23.314;2023-11-21T03:19:11;94778.13;;;4.94
24278;BMP280;12394;42.692;23.314;2023-11-21T03:21:36;94804.84;;;4.98
24278;BMP280;12394;42.692;23.314;2023-11-21T03:24:02;94814.47;;;4.98
24278;BMP280;12394;42.692;23.314;2023-11-21T03:26:28;94811.53;;;4.99
24278;BMP280;12394;42.692;23.314;2023-11-21T03:28:54;94813.00;;;5.00
24278;BMP280;12394;42.692;23.314;2023-11-21T03:31:20;94815.22;;;4.98
24278;BMP280;12394;42.692;23.314;2023-11-21T03:33:46;94823.38;;;5.00
24278;BMP280;12394;42.692;23.314;2023-11-21T03:36:12;94813.41;;;5.02
24278;BMP280;12394;42.692;23.314;2023-11-21T03:38:38;94817.50;;;5.03
24278;BMP280;12394;42.692;23.314;2023-11-21T03:41:04;94809.75;;;5.07
24278;BMP280;12394;42.692;23.314;2023-11-21T03:43:30;94803.09;;;5.09
24278;BMP280;12394;42.692;23.314;2023-11-21T03:45:55;94803.47;;;5.08
24278;BMP280;12394;42.692;23.314;2023-11-21T03:48:21;94795.97;;;4.99
24278;BMP280;12394;42.692;23.314;2023-11-21T03:50:46;94797.84;;;5.02
24278;BMP280;12394;42.692;23.314;2023-11-21T03:53:12;94789.72;;;5.04
24278;BMP280;12394;42.692;23.314;2023-11-21T03:55:38;94786.28;;;4.96
24278;BMP280;12394;42.692;23.314;2023-11-21T03:58:03;94785.06;;;4.86
24278;BMP280;12394;42.692;23.314;2023-11-21T04:00:28;94795.06;;;4.84
24278;BMP280;12394;42.692;23.314;2023-11-21T04:02:54;94782.44;;;4.83
24278;BMP280;12394;42.692;23.314;2023-11-21T04:05:20;94783.97;;;4.87
24278;BMP280;12394;42.692;23.314;2023-11-21T04:07:49;94781.22;;;5.03
24278;BMP280;12394;42.692;23.314;2023-11-21T04:10:14;94781.66;;;5.09
24278;BMP280;12394;42.692;23.314;2023-11-21T04:12:41;94782.78;;;5.11
24278;BMP280;12394;42.692;23.314;2023-11-21T04:15:08;94770.31;;;4.90
24278;BMP280;12394;42.692;23.314;2023-11-21T04:17:34;94782.44;;;4.83
24278;BMP280;12394;42.692;23.314;2023-11-21T04:20:00;94774.63;;;4.79
24278;BMP280;12394;42.692;23.314;2023-11-21T04:22:25;94779.81;;;4.79
24278;BMP280;12394;42.692;23.314;2023-11-21T04:24:51;94770.63;;;4.85
24278;BMP280;12394;42.692;23.314;2023-11-21T04:27:16;94776.16;;;4.84
24278;BMP280;12394;42.692;23.314;2023-11-21T04:29:43;94768.19;;;4.66
24278;BMP280;12394;42.692;23.314;2023-11-21T04:32:09;94785.25;;;4.71
24278;BMP280;12394;42.692;23.314;2023-11-21T04:34:35;94777.19;;;4.76
24278;BMP280;12394;42.692;23.314;2023-11-21T04:37:00;94766.72;;;4.69
24278;BMP280;12394;42.692;23.314;2023-11-21T04:39:26;94784.66;;;4.81
24278;BMP280;12394;42.692;23.314;2023-11-21T04:41:52;94779.03;;;4.75
24278;BMP280;12394;42.692;23.314;2023-11-21T04:44:17;94785.81;;;4.87
24278;BMP280;12394;42.692;23.314;2023-11-21T04:46:43;94785.44;;;4.85
24278;BMP280;12394;42.692;23.314;2023-11-21T04:49:08;94783.94;;;4.84
24278;BMP280;12394;42.692;23.314;2023-11-21T04:51:34;94778.69;;;4.77
24278;BMP280;12394;42.692;23.314;2023-11-21T04:53:59;94796.91;;;4.84
24278;BMP280;12394;42.692;23.314;2023-11-21T04:56:25;94799.91;;;4.86
24278;BMP280;12394;42.692;23.314;2023-11-21T04:58:50;94783.94;;;4.84
24278;BMP280;12394;42.692;23.314;2023-11-21T05:01:16;94786.53;;;4.84
24278;BMP280;12394;42.692;23.314;2023-11-21T05:03:42;94792.81;;;4.83
24278;BMP280;12394;42.692;23.314;2023-11-21T05:06:11;94798.00;;;4.83
24278;BMP280;12394;42.692;23.314;2023-11-21T05:08:36;94798.66;;;4.76
24278;BMP280;12394;42.692;23.314;2023-11-21T05:11:03;94787.53;;;4.76
24278;BMP280;12394;42.692;23.314;2023-11-21T05:13:28;94774.94;;;4.74
24278;BMP280;12394;42.692;23.314;2023-11-21T05:15:57;94783.13;;;4.76
24278;BMP280;12394;42.692;23.314;2023-11-21T05:18:22;94781.31;;;4.80
24278;BMP280;12394;42.692;23.314;2023-11-21T05:20:48;94782.47;;;4.86
24278;BMP280;12394;42.692;23.314;2023-11-21T05:23:13;94779.53;;;4.88
24278;BMP280;12394;42.692;23.314;2023-11-21T05:25:39;94776.94;;;4.88
24278;BMP280;12394;42.692;23.314;2023-11-21T05:28:04;94786.25;;;4.92
24278;BMP280;12394;42.692;23.314;2023-11-21T05:30:30;94787.72;;;4.90
24278;BMP280;12394;42.692;23.314;2023-11-21T05:32:55;94795.13;;;4.91
24278;BMP280;12394;42.692;23.314;2023-11-21T05:35:21;94771.28;;;4.79
24278;BMP280;12394;42.692;23.314;2023-11-21T05:37:46;94797.06;;;4.98
24278;BMP280;12394;42.692;23.314;2023-11-21T05:40:12;94796.28;;;4.94
24278;BMP280;12394;42.692;23.314;2023-11-21T05:42:39;94787.00;;;4.93
24278;BMP280;12394;42.692;23.314;2023-11-21T05:45:06;94808.94;;;4.99
24278;BMP280;12394;42.692;23.314;2023-11-21T05:47:44;94801.53;;;5.01
24278;BMP280;12394;42.692;23.314;2023-11-21T05:50:15;94805.69;;;5.09
24278;BMP280;12394;42.692;23.314;2023-11-21T05:52:42;94805.78;;;5.16
24278;BMP280;12394;42.692;23.314;2023-11-21T05:55:08;94789.44;;;5.12
24278;BMP280;12394;42.692;23.314;2023-11-21T05:57:34;94782.06;;;5.14
24278;BMP280;12394;42.692;23.314;2023-11-21T06:00:12;94795.56;;;5.30
24278;BMP280;12394;42.692;23.314;2023-11-21T06:02:43;94794.88;;;5.37
24278;BMP280;12394;42.692;23.314;2023-11-21T06:05:10;94792.69;;;5.39
24278;BMP280;12394;42.692;23.314;2023-11-21T06:07:36;94796.50;;;5.49
24278;BMP280;12394;42.692;23.314;2023-11-21T06:10:03;94805.81;;;5.53
24278;BMP280;12394;42.692;23.314;2023-11-21T06:12:31;94788.03;;;5.55
24278;BMP280;12394;42.692;23.314;2023-11-21T06:15:01;94808.16;;;5.69
24278;BMP280;12394;42.692;23.314;2023-11-21T06:17:29;94808.63;;;5.78
24278;BMP280;12394;42.692;23.314;2023-11-21T06:19:54;94799.00;;;5.82
24278;BMP280;12394;42.692;23.314;2023-11-21T06:22:20;94815.47;;;5.93
24278;BMP280;12394;42.692;23.314;2023-11-21T06:24:46;94808.78;;;5.92
24278;BMP280;12394;42.692;23.314;2023-11-21T06:27:11;94821.47;;;6.04
24278;BMP280;12394;42.692;23.314;2023-11-21T06:29:37;94818.22;;;6.14
24278;BMP280;12394;42.692;23.314;2023-11-21T06:32:02;94817.16;;;6.22
24278;BMP280;12394;42.692;23.314;2023-11-21T06:34:30;94820.63;;;6.41
24278;BMP280;12394;42.692;23.314;2023-11-21T06:36:55;94825.25;;;6.65
24278;BMP280;12394;42.692;23.314;2023-11-21T06:39:21;94820.97;;;6.97
24278;BMP280;12394;42.692;23.314;2023-11-21T06:41:49;94835.91;;;7.18
24278;BMP280;12394;42.692;23.314;2023-11-21T06:44:15;94847.53;;;7.42
24278;BMP280;12394;42.692;23.314;2023-11-21T06:46:40;94839.03;;;7.73
24278;BMP280;12394;42.692;23.314;2023-11-21T06:49:08;94843.94;;;8.03
24278;BMP280;12394;42.692;23.314;2023-11-21T06:51:33;94840.97;;;8.36
24278;BMP280;12394;42.692;23.314;2023-11-21T06:53:59;94834.22;;;8.88
24278;BMP280;12394;42.692;23.314;2023-11-21T06:56:24;94836.28;;;9.40
24278;BMP280;12394;42.692;23.314;2023-11-21T06:58:49;94841.25;;;9.82
24278;BMP280;12394;42.692;23.314;2023-11-21T07:01:19;94837.78;;;10.51
24278;BMP280;12394;42.692;23.314;2023-11-21T07:03:45;94840.78;;;10.90
24278;BMP280;12394;42.692;23.314;2023-11-21T07:06:11;94847.13;;;10.93
24278;BMP280;12394;42.692;23.314;2023-11-21T07:08:37;94821.84;;;10.79
24278;BMP280;12394;42.692;23.314;2023-11-21T07:11:03;94832.72;;;10.74
24278;BMP280;12394;42.692;23.314;2023-11-21T07:13:29;94831.47;;;10.89
24278;BMP280;12394;42.692;23.314;2023-11-21T07:15:55;94823.75;;;11.09
24278;BMP280;12394;42.692;23.314;2023-11-21T07:18:21;94820.00;;;11.10
24278;BMP280;12394;42.692;23.314;2023-11-21T07:20:46;94832.84;;;11.01
24278;BMP280;12394;42.692;23.314;2023-11-21T07:23:12;94827.00;;;10.86
24278;BMP280;12394;42.692;23.314;2023-11-21T07:25:37;94826.56;;;10.91
24278;BMP280;12394;42.692;23.314;2023-11-21T07:28:03;94821.38;;;10.88
24278;BMP280;12394;42.692;23.314;2023-11-21T07:30:30;94835.44;;;11.01
24278;BMP280;12394;42.692;23.314;2023-11-21T07:32:56;94841.81;;;11.34
24278;BMP280;12394;42.692;23.314;2023-11-21T07:35:21;94844.72;;;11.70
24278;BMP280;12394;42.692;23.314;2023-11-21T07:37:47;94842.47;;;11.72
24278;BMP280;12394;42.692;23.314;2023-11-21T07:40:14;94829.44;;;11.65
24278;BMP280;12394;42.692;23.314;2023-11-21T07:42:39;94831.31;;;11.64
24278;BMP280;12394;42.692;23.314;2023-11-21T07:45:05;94830.63;;;12.17
24278;BMP280;12394;42.692;23.314;2023-11-21T07:47:32;94802.94;;;12.36
24278;BMP280;12394;42.692;23.314;2023-11-21T07:50:00;94817.09;;;12.65
24278;BMP280;12394;42.692;23.314;2023-11-21T07:52:28;94821.66;;;12.61
24278;BMP280;12394;42.692;23.314;2023-11-21T07:54:53;94822.19;;;12.29
24278;BMP280;12394;42.692;23.314;2023-11-21T07:57:19;94824.09;;;12.02
24278;BMP280;12394;42.692;23.314;2023-11-21T07:59:44;94821.56;;;12.22
24278;BMP280;12394;42.692;23.314;2023-11-21T08:02:09;94815.94;;;12.66
24278;BMP280;12394;42.692;23.314;2023-11-21T08:04:35;94817.38;;;12.47
24278;BMP280;12394;42.692;23.314;2023-11-21T08:07:01;94787.94;;;12.13
24278;BMP280;12394;42.692;23.314;2023-11-21T08:09:27;94809.94;;;11.96
24278;BMP280;12394;42.692;23.314;2023-11-21T08:11:53;94805.84;;;11.95
24278;BMP280;12394;42.692;23.314;2023-11-21T08:14:18;94805.97;;;12.11
24278;BMP280;12394;42.692;23.314;2023-11-21T08:16:44;94812.22;;;12.64
24278;BMP280;12394;42.692;23.314;2023-11-21T08:19:10;94790.81;;;13.28
24278;BMP280;12394;42.692;23.314;2023-11-21T08:21:36;94812.50;;;13.68
24278;BMP280;12394;42.692;23.314;2023-11-21T08:24:06;94803.81;;;13.71
24278;BMP280;12394;42.692;23.314;2023-11-21T08:26:35;94808.38;;;14.03
24278;BMP280;12394;42.692;23.314;2023-11-21T08:29:01;94808.34;;;14.19
24278;BMP280;12394;42.692;23.314;2023-11-21T08:31:26;94814.03;;;14.34
24278;BMP280;12394;42.692;23.314;2023-11-21T08:33:52;94808.03;;;14.65
24278;BMP280;12394;42.692;23.314;2023-11-21T08:36:23;94800.00;;;14.85
24278;BMP280;12394;42.692;23.314;2023-11-21T08:38:51;94813.72;;;15.22
24278;BMP280;12394;42.692;23.314;2023-11-21T08:41:20;94795.19;;;14.96
24278;BMP280;12394;42.692;23.314;2023-11-21T08:43:50;94793.72;;;14.66
24278;BMP280;12394;42.692;23.314;2023-11-21T08:46:19;94794.53;;;14.31
24278;BMP280;12394;42.692;23.314;2023-11-21T08:48:46;94802.19;;;14.25
24278;BMP280;12394;42.692;23.314;2023-11-21T08:51:11;94792.47;;;13.90
24278;BMP280;12394;42.692;23.314;2023-11-21T08:53:38;94795.97;;;14.03
24278;BMP280;12394;42.692;23.314;2023-11-21T08:56:05;94792.31;;;14.62
24278;BMP280;12394;42.692;23.314;2023-11-21T08:58:32;94776.28;;;14.85
24278;BMP280;12394;42.692;23.314;2023-11-21T09:00:58;94784.47;;;15.03
24278;BMP280;12394;42.692;23.314;2023-11-21T09:03:25;94734.06;;;14.89
24278;BMP280;12394;42.692;23.314;2023-11-21T09:05:51;94770.19;;;14.88
24278;BMP280;12394;42.692;23.314;2023-11-21T09:08:16;94759.53;;;14.63
24278;BMP280;12394;42.692;23.314;2023-11-21T09:10:42;94741.81;;;14.51
24278;BMP280;12394;42.692;23.314;2023-11-21T09:13:12;94738.25;;;13.96
24278;BMP280;12394;42.692;23.314;2023-11-21T09:16:00;94729.13;;;13.52
24278;BMP280;12394;42.692;23.314;2023-11-21T09:18:26;94732.91;;;13.15
24278;BMP280;12394;42.692;23.314;2023-11-21T09:20:51;94727.88;;;12.85
24278;BMP280;12394;42.692;23.314;2023-11-21T09:23:17;94724.34;;;12.52
24278;BMP280;12394;42.692;23.314;2023-11-21T09:25:44;94722.31;;;12.60
24278;BMP280;12394;42.692;23.314;2023-11-21T09:28:11;94723.94;;;12.73
24278;BMP280;12394;42.692;23.314;2023-11-21T09:30:38;94703.59;;;12.97
24278;BMP280;12394;42.692;23.314;2023-11-21T09:33:04;94687.19;;;12.73
24278;BMP280;12394;42.692;23.314;2023-11-21T09:35:33;94670.69;;;12.92
24278;BMP280;12394;42.692;23.314;2023-11-21T09:37:59;94681.38;;;13.86
24278;BMP280;12394;42.692;23.314;2023-11-21T09:40:27;94662.34;;;14.56
24278;BMP280;12394;42.692;23.314;2023-11-21T09:42:57;94672.22;;;14.93
24278;BMP280;12394;42.692;23.314;2023-11-21T09:45:28;94674.47;;;16.05
24278;BMP280;12394;42.692;23.314;2023-11-21T09:47:55;94672.50;;;16.18
24278;BMP280;12394;42.692;23.314;2023-11-21T09:50:21;94667.84;;;16.22
24278;BMP280;12394;42.692;23.314;2023-11-21T09:52:57;94633.50;;;16.57
24278;BMP280;12394;42.692;23.314;2023-11-21T09:55:26;94634.72;;;16.65
24278;BMP280;12394;42.692;23.314;2023-11-21T09:57:56;94631.91;;;16.90
24278;BMP280;12394;42.692;23.314;2023-11-21T10:00:22;94634.47;;;17.33
24278;BMP280;12394;42.692;23.314;2023-11-21T10:02:53;94624.22;;;17.54
24278;BMP280;12394;42.692;23.314;2023-11-21T10:05:19;94628.41;;;18.09
24278;BMP280;12394;42.692;23.314;2023-11-21T10:07:48;94632.09;;;17.85
24278;BMP280;12394;42.692;23.314;2023-11-21T10:10:18;94629.72;;;17.68
24278;BMP280;12394;42.692;23.314;2023-11-21T10:12:50;94624.28;;;18.63
24278;BMP280;12394;42.692;23.314;2023-11-21T10:15:24;94624.22;;;19.23
24278;BMP280;12394;42.692;23.314;2023-11-21T10:17:53;94627.06;;;20.00
24278;BMP280;12394;42.692;23.314;2023-11-21T10:20:20;94611.78;;;19.47
24278;BMP280;12394;42.692;23.314;2023-11-21T10:22:46;94617.25;;;19.44
24278;BMP280;12394;42.692;23.314;2023-11-21T10:25:12;94592.88;;;19.13
24278;BMP280;12394;42.692;23.314;2023-11-21T10:27:42;94595.06;;;18.03
24278;BMP280;12394;42.692;23.314;2023-11-21T10:30:09;94603.72;;;17.27
24278;BMP280;12394;42.692;23.314;2023-11-21T10:32:42;94601.28;;;16.93
24278;BMP280;12394;42.692;23.314;2023-11-21T10:35:08;94590.19;;;16.54
24278;BMP280;12394;42.692;23.314;2023-11-21T10:37:37;94586.41;;;16.12
24278;BMP280;12394;42.692;23.314;2023-11-21T10:40:10;94583.88;;;15.52
24278;BMP280;12394;42.692;23.314;2023-11-21T10:42:40;94581.88;;;15.18
24278;BMP280;12394;42.692;23.314;2023-11-21T10:45:06;94577.06;;;14.91
24278;BMP280;12394;42.692;23.314;2023-11-21T10:47:46;94584.31;;;14.62
24278;BMP280;12394;42.692;23.314;2023-11-21T10:50:12;94571.81;;;14.24
24278;BMP280;12394;42.692;23.314;2023-11-21T10:52:39;94561.72;;;13.94
24278;BMP280;12394;42.692;23.314;2023-11-21T10:55:20;94573.94;;;13.72
24278;BMP280;12394;42.692;23.314;2023-11-21T10:57:50;94563.41;;;13.72
24278;BMP280;12394;42.692;23.314;2023-11-21T11:00:16;94556.97;;;13.60
24278;BMP280;12394;42.692;23.314;2023-11-21T11:02:49;94560.03;;;13.43
24278;BMP280;12394;42.692;23.314;2023-11-21T11:05:19;94545.06;;;12.91
24278;BMP280;12394;42.692;23.314;2023-11-21T11:07:48;94548.66;;;12.65
24278;BMP280;12394;42.692;23.314;2023-11-21T11:10:18;94551.28;;;12.65
24278;BMP280;12394;42.692;23.314;2023-11-21T11:12:46;94549.31;;;12.69
24278;BMP280;12394;42.692;23.314;2023-11-21T11:15:12;94554.06;;;12.58
24278;BMP280;12394;42.692;23.314;2023-11-21T11:17:40;94546.81;;;12.45
24278;BMP280;12394;42.692;23.314;2023-11-21T11:20:08;94534.22;;;12.73
24278;BMP280;12394;42.692;23.314;2023-11-21T11:22:50;94530.47;;;12.74
24278;BMP280;12394;42.692;23.314;2023-11-21T11:25:35;94525.53;;;12.60
24278;BMP280;12394;42.692;23.314;2023-11-21T11:28:07;94515.19;;;12.53
24278;BMP280;12394;42.692;23.314;2023-11-21T11:30:55;94516.50;;;12.61
24278;BMP280;12394;42.692;23.314;2023-11-21T11:33:45;94511.09;;;12.68
24278;BMP280;12394;42.692;23.314;2023-11-21T11:39:31;94506.78;;;12.41
24278;BMP280;12394;42.692;23.314;2023-11-21T11:42:02;94503.00;;;12.26
24278;BMP280;12394;42.692;23.314;2023-11-21T11:47:16;94515.97;;;12.14
24278;BMP280;12394;42.692;23.314;2023-11-21T11:50:01;94522.13;;;12.07
24278;BMP280;12394;42.692;23.314;2023-11-21T11:55:02;94515.66;;;11.92
24278;BMP280;12394;42.692;23.314;2023-11-21T11:57:30;94518.22;;;11.95
24278;BMP280;12394;42.692;23.314;2023-11-21T12:00:17;94501.44;;;11.93
24278;BMP280;12394;42.692;23.314;2023-11-21T12:02:47;94504.50;;;11.88
24278;BMP280;12394;42.692;23.314;2023-11-21T12:05:15;94518.56;;;11.54
24278;BMP280;12394;42.692;23.314;2023-11-21T12:10:18;94519.03;;;11.49
24278;BMP280;12394;42.692;23.314;2023-11-21T12:12:51;94511.78;;;11.37
24278;BMP280;12394;42.692;23.314;2023-11-21T12:15:20;94527.84;;;11.39
24278;BMP280;12394;42.692;23.314;2023-11-21T12:17:47;94522.41;;;11.27
24278;BMP280;12394;42.692;23.314;2023-11-21T12:20:13;94520.31;;;11.18
24278;BMP280;12394;42.692;23.314;2023-11-21T12:22:49;94518.56;;;11.11
24278;BMP280;12394;42.692;23.314;2023-11-21T12:27:51;94506.69;;;11.07
24278;BMP280;12394;42.692;23.314;2023-11-21T12:30:21;94516.72;;;11.08
24278;BMP280;12394;42.692;23.314;2023-11-21T12:32:51;94519.53;;;10.98
24278;BMP280;12394;42.692;23.314;2023-11-21T12:35:18;94518.25;;;10.83
24278;BMP280;12394;42.692;23.314;2023-11-21T12:37:47;94497.75;;;10.54
24278;BMP280;12394;42.692;23.314;2023-11-21T12:40:14;94507.47;;;10.54
24278;BMP280;12394;42.692;23.314;2023-11-21T12:42:44;94518.66;;;10.54
24278;BMP280;12394;42.692;23.314;2023-11-21T12:45:21;94516.41;;;10.56
24278;BMP280;12394;42.692;23.314;2023-11-21T12:47:49;94497.06;;;10.50
24278;BMP280;12394;42.692;23.314;2023-11-21T12:50:22;94490.34;;;10.49
24278;BMP280;12394;42.692;23.314;2023-11-21T12:52:51;94478.88;;;10.43
24278;BMP280;12394;42.692;23.314;2023-11-21T12:55:36;94486.59;;;10.50
24278;BMP280;12394;42.692;23.314;2023-11-21T12:58:05;94488.13;;;10.48
24278;BMP280;12394;42.692;23.314;2023-11-21T13:00:45;94465.03;;;10.43
24278;BMP280;12394;42.692;23.314;2023-11-21T13:03:16;94480.94;;;10.55
24278;BMP280;12394;42.692;23.314;2023-11-21T13:05:49;94469.63;;;10.62
24278;BMP280;12394;42.692;23.314;2023-11-21T13:08:37;94475.53;;;10.66
24278;BMP280;12394;42.692;23.314;2023-11-21T13:11:23;94481.28;;;10.57
24278;BMP280;12394;42.692;23.314;2023-11-21T13:13:51;94453.50;;;10.40
24278;BMP280;12394;42.692;23.314;2023-11-21T13:16:18;94478.69;;;10.54
24278;BMP280;12394;42.692;23.314;2023-11-21T13:18:46;94478.00;;;10.50
24278;BMP280;12394;42.692;23.314;2023-11-21T13:21:12;94468.72;;;10.45
24278;BMP280;12394;42.692;23.314;2023-11-21T13:23:41;94472.03;;;10.49
24278;BMP280;12394;42.692;23.314;2023-11-21T13:26:07;94467.97;;;10.48
24278;BMP280;12394;42.692;23.314;2023-11-21T13:28:36;94470.47;;;10.55
24278;BMP280;12394;42.692;23.314;2023-11-21T13:31:04;94446.63;;;10.50
24278;BMP280;12394;42.692;23.314;2023-11-21T13:33:49;94459.19;;;10.58
24278;BMP280;12394;42.692;23.314;2023-11-21T13:36:23;94461.03;;;10.61
24278;BMP280;12394;42.692;23.314;2023-11-21T13:38:51;94452.38;;;10.64
24278;BMP280;12394;42.692;23.314;2023-11-21T13:41:19;94455.53;;;10.79
24278;BMP280;12394;42.692;23.314;2023-11-21T13:43:45;94434.59;;;10.56
24278;BMP280;12394;42.692;23.314;2023-11-21T13:46:17;94440.66;;;10.73
24278;BMP280;12394;42.692;23.314;2023-11-21T13:48:47;94443.97;;;10.77
24278;BMP280;12394;42.692;23.314;2023-11-21T13:51:21;94442.09;;;10.77
24278;BMP280;12394;42.692;23.314;2023-11-21T13:53:55;94441.13;;;10.91
24278;BMP280;12394;42.692;23.314;2023-11-21T13:56:21;94440.56;;;10.80
24278;BMP280;12394;42.692;23.314;2023-11-21T13:58:52;94443.97;;;10.77
24278;BMP280;12394;42.692;23.314;2023-11-21T14:01:23;94437.44;;;10.88
24278;BMP280;12394;42.692;23.314;2023-11-21T14:04:04;94440.44;;;10.87
24278;BMP280;12394;42.692;23.314;2023-11-21T14:06:38;94436.56;;;10.95
24278;BMP280;12394;42.692;23.314;2023-11-21T14:09:14;94447.69;;;11.02
24278;BMP280;12394;42.692;23.314;2023-11-21T14:11:49;94439.31;;;10.88
24278;BMP280;12394;42.692;23.314;2023-11-21T14:14:15;94444.69;;;10.81
24278;BMP280;12394;42.692;23.314;2023-11-21T14:16:41;94444.31;;;10.79
24278;BMP280;12394;42.692;23.314;2023-11-21T14:19:07;94453.75;;;10.73